North Bend, Ohio
Current Conditions -  °F | °C
As of 1:52 PM on Friday 24 Oct 2014 (Local Time) from KCVG Reporting Station
Clear Clear  
Wind Chill: 63°   Ceiling: Unl
Heat Index: 63°   Visibility: 10mi
Dew Point: 40°   Wind: 0mph
Humidity: 43%   Direction: NA
Pressure: 30.08"   Gusts: NA
Location:  39.15°N, 84.75°W
Report Text: KCVG 241752Z 00000KT 10SM CLR 17/04 A3008 RMK AO2 SLP185 T01720044 10172 20044 58014
Loading
Personal Weather Stations






























Interactive Weather Map
Tropical Storm Tracking
New forecast layout! Learn more

10-Day Weather Forecast

Advertisements
Track Severe Weather on mobile